Time;durP1;ratioP1;P1;durP2;ratioP2;P2;SDS_P1;SDS_P2;PMS_P1;PMS_P2;Temp;Humidity;BMP_temperature;BMP_pressure;BME280_temperature;BME280_humidity;BME280_pressure;Samples;Min_cycle;Max_cycle;Signal;HPM_P1;HPM_P2
2022/09/28 00:01:49;;;;;;;9.30;3.90;;;7.80;99.90;;;;;;6018016;23;20033;-88
2022/09/28 00:04:15;;;;;;;10.48;4.10;;;7.90;99.90;;;;;;6040678;23;20014;-89
2022/09/28 00:06:41;;;;;;;12.38;4.22;;;8.00;99.90;;;;;;6041350;23;20017;-88
2022/09/28 00:09:06;;;;;;;8.57;4.07;;;7.80;99.90;;;;;;6041213;23;20010;-89
2022/09/28 00:11:32;;;;;;;8.95;4.40;;;7.80;99.90;;;;;;6041161;23;20022;-88
2022/09/28 00:14:02;;;;;;;9.38;4.25;;;7.80;99.90;;;;;;6018182;23;20178;-88
2022/09/28 00:16:30;;;;;;;9.20;4.32;;;8.30;99.90;;;;;;6040060;23;20011;-88
2022/09/28 00:18:56;;;;;;;10.80;4.47;;;8.10;99.90;;;;;;6042208;23;20408;-88
2022/09/28 00:21:27;;;;;;;9.52;4.30;;;8.40;99.90;;;;;;6017783;23;20022;-88
2022/09/28 00:26:41;;;;;;;10.35;4.75;;;9.20;99.90;;;;;;6067958;23;20022;-88
2022/09/28 00:29:14;;;;;;;9.68;4.57;;;7.70;99.90;;;;;;6067324;23;20026;-88
2022/09/28 00:31:39;;;;;;;9.52;5.05;;;7.70;99.90;;;;;;6064287;23;20094;-89
2022/09/28 00:34:05;;;;;;;10.05;4.80;;;7.70;99.90;;;;;;6043415;23;20531;-90
2022/09/28 00:36:32;;;;;;;11.05;5.20;;;7.70;99.90;;;;;;6068355;23;20026;-90
2022/09/28 00:39:01;;;;;;;11.68;5.13;;;8.80;99.90;;;;;;6043364;23;20344;-89
2022/09/28 00:41:28;;;;;;;10.07;5.13;;;9.00;99.90;;;;;;6043249;23;20034;-90
2022/09/28 00:44:23;;;;;;;10.95;5.53;;;8.90;99.90;;;;;;6068348;23;20018;-90
2022/09/28 00:47:18;;;;;;;11.55;5.72;;;7.70;99.90;;;;;;6066478;23;20543;-90
2022/09/28 00:49:48;;;;;;;11.80;5.90;;;6.40;99.90;;;;;;6043358;23;20026;-90
2022/09/28 00:52:19;;;;;;;11.32;6.05;;;7.70;99.90;;;;;;6042581;23;20353;-90
2022/09/28 00:54:46;;;;;;;11.95;6.10;;;7.80;99.90;;;;;;6043793;23;20026;-89
2022/09/28 00:57:13;;;;;;;11.90;5.97;;;8.30;99.90;;;;;;6044218;23;20070;-90
2022/09/28 00:59:40;;;;;;;11.80;6.47;;;7.80;99.90;;;;;;6043813;23;20018;-90
2022/09/28 01:02:06;;;;;;;13.30;5.97;;;7.80;99.90;;;;;;6041894;23;20089;-90
2022/09/28 01:04:32;;;;;;;12.98;6.90;;;7.70;99.90;;;;;;6067507;23;20343;-90
2022/09/28 01:06:59;;;;;;;13.20;6.53;;;7.70;99.90;;;;;;6018069;23;20093;-90
2022/09/28 01:09:26;;;;;;;11.93;5.90;;;8.40;99.90;;;;;;6068473;23;20021;-90
2022/09/28 01:11:52;;;;;;;11.38;6.32;;;7.70;99.90;;;;;;6042995;23;20015;-90
2022/09/28 01:14:19;;;;;;;12.63;6.35;;;7.90;99.90;;;;;;6043820;23;20033;-90
2022/09/28 01:17:06;;;;;;;12.95;6.43;;;7.70;99.90;;;;;;6066586;23;20045;-90
2022/09/28 01:19:50;;;;;;;12.48;6.10;;;7.70;99.90;;;;;;6068280;23;20014;-89
2022/09/28 01:22:30;;;;;;;11.02;5.68;;;8.50;99.90;;;;;;6043712;23;20018;-90
2022/09/28 01:25:17;;;;;;;13.55;6.22;;;8.70;99.90;;;;;;6066947;23;20356;-90
2022/09/28 01:28:03;;;;;;;9.77;5.35;;;7.60;99.90;;;;;;6066140;23;20022;-90
2022/09/28 01:30:36;;;;;;;10.90;5.50;;;7.50;99.90;;;;;;6066779;23;20033;-90
2022/09/28 01:33:11;;;;;;;10.00;5.18;;;7.50;99.90;;;;;;6066396;23;20022;-90
2022/09/28 01:35:51;;;;;;;10.88;5.40;;;7.50;99.90;;;;;;6042601;23;20015;-90
2022/09/28 01:38:23;;;;;;;11.15;4.82;;;7.60;99.90;;;;;;6066469;23;20047;-90
2022/09/28 01:40:49;;;;;;;9.80;5.32;;;7.40;99.90;;;;;;6067260;23;20337;-89
2022/09/28 01:43:23;;;;;;;10.80;5.03;;;8.20;99.90;;;;;;6041863;23;20018;-90
2022/09/28 01:46:05;;;;;;;11.98;5.72;;;7.30;99.90;;;;;;6042566;23;20026;-90
2022/09/28 01:49:26;;;;;;;10.02;5.07;;;7.30;99.90;;;;;;6042890;23;20184;-90
2022/09/28 01:52:14;;;;;;;9.18;4.65;;;7.30;99.90;;;;;;5950909;24;20475;-90
2022/09/28 01:54:45;;;;;;;9.25;4.88;;;7.30;99.90;;;;;;6041490;23;20018;-89
2022/09/28 01:57:20;;;;;;;9.70;5.22;;;7.30;99.90;;;;;;6065654;23;20046;-90
2022/09/28 02:00:01;;;;;;;9.73;5.00;;;7.30;99.90;;;;;;6042978;23;20021;-90
2022/09/28 02:02:32;;;;;;;9.35;4.60;;;7.30;99.90;;;;;;6042285;23;20022;-90
2022/09/28 02:05:14;;;;;;;9.50;4.32;;;8.90;99.90;;;;;;6041847;23;20014;-90
2022/09/28 02:08:23;;;;;;;8.93;4.20;;;7.20;99.90;;;;;;6041687;23;20046;-90
2022/09/28 02:10:55;;;;;;;8.50;3.40;;;7.10;99.90;;;;;;6065580;23;20352;-89
2022/09/28 02:13:32;;;;;;;7.40;2.90;;;8.10;99.90;;;;;;6043931;23;20022;-90
2022/09/28 02:16:27;;;;;;;7.72;2.97;;;7.00;99.90;;;;;;6043481;23;20046;-89
2022/09/28 02:18:53;;;;;;;7.82;2.97;;;6.90;99.90;;;;;;6063166;23;20120;-90
2022/09/28 02:21:28;;;;;;;7.13;2.97;;;6.80;99.90;;;;;;6067001;23;20014;-90
2022/09/28 02:24:05;;;;;;;7.80;3.20;;;6.80;99.90;;;;;;6042459;23;20022;-89
2022/09/28 02:26:36;;;;;;;7.60;3.03;;;7.30;99.90;;;;;;6041455;23;20023;-89
2022/09/28 02:29:03;;;;;;;9.27;3.67;;;6.80;99.90;;;;;;6066079;23;20026;-89
2022/09/28 02:31:29;;;;;;;8.43;3.90;;;6.80;99.90;;;;;;6064821;23;20041;-89
2022/09/28 02:33:56;;;;;;;10.23;4.88;;;6.80;99.90;;;;;;6018456;23;20029;-89
2022/09/28 02:36:25;;;;;;;10.48;4.50;;;6.80;99.90;;;;;;6066378;23;20133;-89
2022/09/28 02:38:51;;;;;;;9.23;4.40;;;6.90;99.90;;;;;;6043049;23;20021;-89
2022/09/28 02:41:55;;;;;;;15.05;5.82;;;8.20;99.90;;;;;;6065326;23;20309;-89
2022/09/28 02:44:33;;;;;;;;;;;7.00;99.90;;;;;;6011735;23;20014;-89
2022/09/28 02:47:25;;;;;;;43.88;6.20;;;7.10;99.90;;;;;;6066902;23;20308;-89
2022/09/28 02:50:35;;;;;;;14.68;5.60;;;7.10;99.90;;;;;;6042259;23;20090;-89
2022/09/28 02:53:25;;;;;;;14.20;5.32;;;7.30;99.90;;;;;;5979905;23;20022;-89
2022/09/28 02:56:08;;;;;;;13.65;6.10;;;7.30;99.90;;;;;;6065844;23;20344;-90
2022/09/28 02:59:06;;;;;;;38.08;7.50;;;7.40;99.90;;;;;;6041387;23;20018;-90
2022/09/28 03:01:35;;;;;;;11.95;6.53;;;7.70;99.90;;;;;;6041901;23;20018;-89
2022/09/28 03:04:16;;;;;;;32.88;7.93;;;7.50;99.90;;;;;;6042641;23;20022;-90
2022/09/28 03:06:57;;;;;;;27.60;8.18;;;7.50;99.90;;;;;;6042908;23;20065;-89
2022/09/28 03:09:57;;;;;;;97.63;10.00;;;8.60;99.90;;;;;;6040273;23;20014;-89
2022/09/28 03:12:25;;;;;;;79.60;9.63;;;7.50;99.90;;;;;;6017523;23;20397;-88
2022/09/28 03:15:09;;;;;;;48.63;8.88;;;7.50;99.90;;;;;;6042618;23;20440;-90
2022/09/28 03:17:35;;;;;;;36.83;8.25;;;7.50;99.90;;;;;;6066609;23;20075;-89
2022/09/28 03:20:03;;;;;;;120.35;11.40;;;7.60;99.90;;;;;;6065250;23;20068;-89
2022/09/28 03:22:28;;;;;;;19.33;6.90;;;7.50;99.90;;;;;;6066797;23;20138;-90
2022/09/28 03:24:54;;;;;;;39.00;7.80;;;7.40;99.90;;;;;;6040271;23;20053;-89
2022/09/28 03:27:19;;;;;;;42.25;7.95;;;7.40;99.90;;;;;;6041981;23;20025;-90
2022/09/28 03:29:45;;;;;;;30.30;7.10;;;8.10;99.90;;;;;;6018928;23;20023;-90
2022/09/28 03:32:11;;;;;;;36.15;7.30;;;7.30;99.90;;;;;;6041746;23;20230;-90
2022/09/28 03:34:36;;;;;;;25.75;7.40;;;8.00;99.90;;;;;;6042125;23;20023;-89
2022/09/28 03:37:02;;;;;;;25.58;6.75;;;7.30;99.90;;;;;;6018851;23;20019;-90
2022/09/28 03:39:28;;;;;;;38.45;7.28;;;7.20;99.90;;;;;;6066154;23;20022;-89
2022/09/28 03:41:53;;;;;;;40.00;7.32;;;8.20;99.90;;;;;;6017677;23;20015;-89
2022/09/28 03:44:19;;;;;;;18.65;6.53;;;7.60;99.90;;;;;;6042096;23;20089;-89
2022/09/28 03:46:45;;;;;;;49.90;8.30;;;7.10;99.90;;;;;;6042014;23;20101;-89
2022/09/28 03:49:11;;;;;;;13.70;6.40;;;7.70;99.90;;;;;;6066751;23;20025;-89
2022/09/28 03:51:37;;;;;;;11.93;6.40;;;7.10;99.90;;;;;;6017581;23;20018;-89
2022/09/28 03:54:03;;;;;;;15.35;6.57;;;7.30;99.90;;;;;;6018320;23;20022;-89
2022/09/28 03:56:29;;;;;;;11.13;6.03;;;7.10;99.90;;;;;;6041045;23;20021;-89
2022/09/28 03:58:54;;;;;;;14.27;6.53;;;8.40;99.90;;;;;;6018200;23;20018;-89
2022/09/28 04:01:20;;;;;;;11.35;6.43;;;7.70;99.90;;;;;;6041845;23;20018;-89
2022/09/28 04:03:46;;;;;;;22.90;7.03;;;7.00;99.90;;;;;;6041924;23;20025;-89
2022/09/28 04:06:13;;;;;;;22.10;7.32;;;8.40;99.90;;;;;;6040092;23;20015;-89
2022/09/28 04:08:39;;;;;;;14.15;7.03;;;7.20;99.90;;;;;;6042413;23;20018;-89
2022/09/28 04:11:05;;;;;;;17.98;7.55;;;7.20;99.90;;;;;;6041890;23;20471;-89
2022/09/28 04:13:33;;;;;;;15.95;7.13;;;7.00;99.90;;;;;;6065802;23;20101;-89
2022/09/28 04:16:00;;;;;;;19.35;7.10;;;7.00;99.90;;;;;;6066103;23;20017;-89
2022/09/28 04:18:26;;;;;;;12.63;6.82;;;7.00;99.90;;;;;;6065031;23;20077;-89
2022/09/28 04:21:05;;;;;;;17.90;6.30;;;8.00;99.90;;;;;;6041415;23;20519;-89
2022/09/28 04:23:33;;;;;;;14.32;6.53;;;8.10;99.90;;;;;;6040282;23;20024;-89
2022/09/28 04:25:59;;;;;;;15.27;6.38;;;6.90;99.90;;;;;;6041750;23;20025;-89
2022/09/28 04:31:16;;;;;;;29.17;6.93;;;6.90;99.90;;;;;;6064944;23;20018;-89
2022/09/28 04:33:42;;;;;;;30.40;6.10;;;7.80;99.90;;;;;;6041670;23;20021;-89
2022/09/28 04:36:11;;;;;;;38.15;6.30;;;6.80;99.90;;;;;;6064791;23;20010;-89
2022/09/28 04:38:37;;;;;;;87.40;8.60;;;7.00;99.90;;;;;;6042048;23;20015;-89
2022/09/28 04:41:03;;;;;;;53.92;6.88;;;6.70;99.90;;;;;;6041300;23;20011;-88
2022/09/28 04:43:29;;;;;;;33.33;6.43;;;7.70;99.90;;;;;;6016411;23;20029;-89
2022/09/28 04:45:59;;;;;;;21.73;6.10;;;6.70;99.90;;;;;;6017757;23;20014;-89
2022/09/28 04:48:26;;;;;;;12.18;5.53;;;7.20;99.90;;;;;;6065451;23;20025;-89
2022/09/28 04:50:57;;;;;;;38.88;6.85;;;8.30;99.90;;;;;;6039334;23;20011;-88
2022/09/28 04:53:24;;;;;;;31.50;6.63;;;6.80;99.90;;;;;;6041242;23;20018;-88
2022/09/28 04:56:02;;;;;;;15.38;6.30;;;6.90;99.90;;;;;;6019205;23;20010;-89
2022/09/28 04:58:29;;;;;;;69.88;8.60;;;6.80;99.90;;;;;;6042688;23;20014;-90
2022/09/28 05:01:00;;;;;;;95.43;10.10;;;7.50;99.90;;;;;;6066241;23;20108;-90
2022/09/28 05:03:29;;;;;;;60.08;7.75;;;6.80;99.90;;;;;;6042219;23;20018;-89
2022/09/28 05:05:57;;;;;;;80.55;10.02;;;7.50;99.90;;;;;;6017355;23;20054;-89
2022/09/28 05:08:23;;;;;;;60.58;7.93;;;6.70;99.90;;;;;;6043064;23;20094;-89
2022/09/28 05:11:03;;;;;;;20.80;6.93;;;6.90;99.90;;;;;;6041147;23;20045;-89
2022/09/28 05:13:29;;;;;;;69.22;7.85;;;6.70;99.90;;;;;;6044990;23;20014;-89
2022/09/28 05:16:16;;;;;;;13.95;6.18;;;8.00;99.90;;;;;;6041395;23;20021;-90
2022/09/28 05:18:42;;;;;;;15.52;6.38;;;;;;;;;;6068665;23;20090;-89
2022/09/28 05:21:15;;;;;;;17.80;6.78;;;6.70;99.90;;;;;;6068210;23;20018;-89
2022/09/28 05:23:46;;;;;;;25.90;7.57;;;5.20;99.90;;;;;;6044619;23;20018;-88
2022/09/28 05:26:15;;;;;;;30.40;7.55;;;;;;;;;;6068111;23;20014;-88
2022/09/28 05:28:41;;;;;;;31.10;7.90;;;6.70;99.90;;;;;;6068299;23;20018;-88
2022/09/28 05:31:06;;;;;;;15.75;7.38;;;7.50;99.90;;;;;;6045445;23;20020;-89
2022/09/28 05:33:32;;;;;;;18.05;7.03;;;7.50;99.90;;;;;;6044790;23;20019;-88
2022/09/28 05:35:59;;;;;;;51.80;8.73;;;6.70;99.90;;;;;;6044633;23;20011;-88
2022/09/28 05:38:25;;;;;;;47.40;8.45;;;6.70;99.90;;;;;;6065633;23;20092;-88
2022/09/28 05:40:51;;;;;;;178.88;14.68;;;6.70;99.90;;;;;;6044153;23;20021;-88
2022/09/28 05:43:17;;;;;;;15.68;7.75;;;6.70;99.90;;;;;;6042652;23;20097;-88
2022/09/28 05:45:43;;;;;;;159.02;12.82;;;6.70;99.90;;;;;;6043107;23;20053;-89
2022/09/28 05:48:08;;;;;;;21.58;8.20;;;6.80;99.90;;;;;;6043774;23;20033;-89
2022/09/28 05:50:34;;;;;;;152.75;12.23;;;8.20;99.90;;;;;;6042915;23;20014;-87
2022/09/28 05:53:08;;;;;;;22.50;7.78;;;6.90;99.90;;;;;;6043654;23;20105;-88
2022/09/28 05:55:34;;;;;;;33.75;7.65;;;6.80;99.90;;;;;;6043386;23;20449;-88
2022/09/28 05:58:03;;;;;;;14.00;7.18;;;6.80;99.90;;;;;;6067882;23;20018;-88
2022/09/28 06:00:30;;;;;;;35.90;8.05;;;8.20;99.90;;;;;;6044037;23;20352;-88
2022/09/28 06:02:56;;;;;;;66.60;9.32;;;6.60;99.90;;;;;;6043257;23;20054;-88
2022/09/28 06:05:23;;;;;;;49.03;8.45;;;6.60;99.90;;;;;;6044262;23;20061;-88
2022/09/28 06:07:49;;;;;;;18.13;8.20;;;6.60;99.90;;;;;;6066683;23;20093;-88
2022/09/28 06:10:14;;;;;;;165.98;12.52;;;6.80;99.90;;;;;;6066386;23;20052;-88
2022/09/28 06:12:41;;;;;;;25.95;7.13;;;6.60;99.90;;;;;;6042342;23;20014;-88
2022/09/28 06:15:07;;;;;;;27.70;7.53;;;6.60;99.90;;;;;;6066620;23;20057;-88
2022/09/28 06:17:33;;;;;;;108.60;10.55;;;6.60;99.90;;;;;;6068643;23;20010;-88
2022/09/28 06:19:58;;;;;;;38.50;7.50;;;7.60;99.90;;;;;;6042821;23;20018;-88
2022/09/28 06:22:24;;;;;;;148.65;11.40;;;6.60;99.90;;;;;;6019782;23;20025;-88
2022/09/28 06:24:50;;;;;;;119.20;11.43;;;7.10;99.90;;;;;;6065579;23;20098;-88
2022/09/28 06:27:15;;;;;;;35.35;8.32;;;7.50;99.90;;;;;;6042752;23;20026;-88
2022/09/28 06:29:41;;;;;;;34.47;7.80;;;6.60;99.90;;;;;;6019138;23;20085;-88
2022/09/28 06:32:07;;;;;;;103.47;12.02;;;6.60;99.90;;;;;;6043437;23;20069;-88
2022/09/28 06:34:33;;;;;;;235.85;15.57;;;6.60;99.90;;;;;;6041528;23;20015;-88
2022/09/28 06:36:59;;;;;;;127.15;10.25;;;6.70;99.90;;;;;;6042030;23;20022;-88
2022/09/28 06:39:25;;;;;;;157.63;10.88;;;6.70;99.90;;;;;;6043579;23;20474;-89
2022/09/28 06:41:51;;;;;;;108.70;9.75;;;6.70;99.90;;;;;;6043562;23;20019;-90
2022/09/28 06:44:17;;;;;;;50.25;8.15;;;6.80;99.90;;;;;;6041747;23;20025;-90
2022/09/28 06:46:42;;;;;;;75.18;8.75;;;6.80;99.90;;;;;;6042687;23;20014;-89
2022/09/28 06:49:11;;;;;;;53.80;7.65;;;7.80;99.90;;;;;;6044005;23;20026;-91
2022/09/28 06:51:37;;;;;;;36.85;7.32;;;7.30;99.90;;;;;;6020402;23;20022;-90
2022/09/28 06:54:02;;;;;;;68.70;9.50;;;8.20;99.90;;;;;;6043177;23;20040;-89
2022/09/28 06:56:28;;;;;;;35.10;7.00;;;6.90;99.90;;;;;;6017794;23;20018;-90
2022/09/28 06:58:54;;;;;;;17.05;7.05;;;6.90;99.90;;;;;;6043406;23;20058;-89
2022/09/28 07:01:20;;;;;;;101.93;11.00;;;7.00;99.90;;;;;;6066829;23;20105;-90
2022/09/28 07:03:45;;;;;;;99.72;10.75;;;7.00;99.90;;;;;;6042323;23;20459;-90
2022/09/28 07:06:11;;;;;;;44.25;8.75;;;7.10;99.90;;;;;;6065358;23;20014;-90
2022/09/28 07:08:37;;;;;;;132.00;13.10;;;7.10;99.90;;;;;;6067003;23;20085;-88
2022/09/28 07:11:07;;;;;;;49.88;8.65;;;8.70;99.90;;;;;;6043054;23;20057;-90
2022/09/28 07:13:33;;;;;;;92.13;12.40;;;7.20;99.90;;;;;;6066282;23;20455;-90
2022/09/28 07:15:58;;;;;;;191.38;15.80;;;8.00;99.90;;;;;;6042772;23;20041;-88
2022/09/28 07:18:25;;;;;;;35.70;8.68;;;7.20;99.90;;;;;;6043155;23;20057;-89
2022/09/28 07:20:51;;;;;;;14.93;7.43;;;7.30;99.90;;;;;;6043036;23;20022;-89
2022/09/28 07:23:17;;;;;;;29.17;9.00;;;7.40;99.90;;;;;;6041833;23;20018;-89
2022/09/28 07:25:46;;;;;;;46.78;9.85;;;8.30;99.90;;;;;;6067094;23;20021;-88
2022/09/28 07:28:12;;;;;;;227.10;16.15;;;7.60;99.90;;;;;;6065742;23;20098;-89
2022/09/28 07:30:38;;;;;;;30.92;9.20;;;7.60;99.90;;;;;;6065996;23;20022;-89
2022/09/28 07:33:06;;;;;;;17.38;8.50;;;7.70;99.90;;;;;;6066702;23;20089;-89
2022/09/28 07:35:33;;;;;;;35.72;9.52;;;7.80;99.90;;;;;;6043358;23;20022;-89
2022/09/28 07:38:05;;;;;;;31.95;9.30;;;8.40;99.90;;;;;;6065374;23;20025;-89
2022/09/28 07:43:19;;;;;;;114.20;13.13;;;8.20;99.90;;;;;;6064467;23;20022;-88
2022/09/28 07:45:47;;;;;;;22.38;9.20;;;8.50;99.90;;;;;;6043025;23;20018;-89
2022/09/28 07:48:17;;;;;;;16.23;8.68;;;8.90;99.90;;;;;;6042886;23;20018;-89
2022/09/28 07:50:55;;;;;;;43.47;10.10;;;9.80;99.90;;;;;;6043102;23;20090;-89
2022/09/28 07:53:23;;;;;;;24.45;9.20;;;8.60;99.90;;;;;;6042765;23;20022;-90
2022/09/28 07:56:05;;;;;;;36.78;9.95;;;8.70;99.90;;;;;;6042023;23;20022;-90
2022/09/28 07:58:32;;;;;;;20.92;8.10;;;8.70;99.90;;;;;;6066267;23;20014;-89
2022/09/28 08:01:03;;;;;;;59.50;11.05;;;8.60;99.90;;;;;;6063178;23;20014;-91
2022/09/28 08:03:29;;;;;;;19.35;8.13;;;8.60;99.90;;;;;;6065429;23;20403;-89
2022/09/28 08:05:59;;;;;;;19.23;9.15;;;8.60;99.90;;;;;;6066787;23;20053;-90
2022/09/28 08:08:25;;;;;;;18.40;8.90;;;8.60;99.90;;;;;;6067006;23;20441;-90
2022/09/28 08:10:52;;;;;;;36.88;9.25;;;8.70;99.90;;;;;;6066987;23;20014;-91
2022/09/28 08:13:18;;;;;;;19.90;8.43;;;8.80;99.90;;;;;;6042119;23;20273;-90
2022/09/28 08:15:50;;;;;;;22.92;8.45;;;8.90;99.90;;;;;;6041565;23;20158;-89
2022/09/28 08:18:16;;;;;;;16.05;8.38;;;9.00;99.90;;;;;;6065470;23;20010;-90
2022/09/28 08:23:26;;;;;;;20.88;9.02;;;;;;;;;;6025492;23;20023;-90
2022/09/28 08:25:55;;;;;;;20.30;9.02;;;9.20;99.90;;;;;;6065468;23;20452;-89
2022/09/28 08:28:22;;;;;;;25.25;8.98;;;9.70;99.90;;;;;;6041838;23;20022;-89
2022/09/28 08:30:50;;;;;;;15.55;8.75;;;10.80;99.90;;;;;;6018125;23;20030;-89
2022/09/28 08:33:19;;;;;;;21.85;9.00;;;10.10;99.90;;;;;;6041072;23;20445;-90
2022/09/28 08:35:45;;;;;;;16.58;8.70;;;9.60;99.90;;;;;;6065415;23;20024;-90
2022/09/28 08:38:12;;;;;;;16.63;8.60;;;11.20;99.90;;;;;;6018331;23;20033;-90
2022/09/28 08:40:48;;;;;;;13.30;7.68;;;10.00;99.90;;;;;;6042168;23;20053;-91
2022/09/28 08:43:52;;;;;;;11.82;7.00;;;9.80;99.90;;;;;;6042663;23;20325;-90
2022/09/28 08:46:19;;;;;;;;;;;9.80;99.90;;;;;;6001037;23;20031;-91
2022/09/28 08:49:02;;;;;;;14.38;7.88;;;10.10;99.90;;;;;;6045626;23;19917;-90
2022/09/28 08:51:37;;;;;;;13.32;7.32;;;9.80;99.90;;;;;;6042656;23;20377;-90
2022/09/28 08:54:15;;;;;;;11.65;6.65;;;11.10;99.90;;;;;;6067858;23;20018;-91
2022/09/28 08:57:12;;;;;;;13.25;7.53;;;10.70;99.90;;;;;;6043550;23;20088;-92
2022/09/28 08:59:53;;;;;;;11.10;6.65;;;10.00;99.90;;;;;;6035449;23;20029;-92
2022/09/28 09:02:32;;;;;;;13.48;7.63;;;10.10;99.90;;;;;;6047764;23;20460;-91
2022/09/28 09:05:02;;;;;;;14.00;7.15;;;10.20;99.90;;;;;;6045847;23;20015;-93
2022/09/28 09:07:34;;;;;;;13.27;7.22;;;10.30;99.90;;;;;;6044063;23;20011;-91
2022/09/28 09:10:06;;;;;;;11.02;6.35;;;11.50;99.90;;;;;;6045241;23;20093;-92
2022/09/28 09:12:57;;;;;;;11.55;6.57;;;10.50;99.90;;;;;;6045685;23;20021;-92
2022/09/28 09:15:32;;;;;;;13.00;6.70;;;10.60;99.90;;;;;;6093427;23;20010;-92
2022/09/28 09:18:10;;;;;;;12.57;7.05;;;10.80;99.90;;;;;;6044767;23;20022;-93
2022/09/28 09:20:55;;;;;;;12.13;7.28;;;11.00;99.90;;;;;;6043914;23;20033;-93
2022/09/28 09:23:43;;;;;;;12.50;6.32;;;11.00;99.90;;;;;;6045930;23;20042;-93
2022/09/28 09:26:20;;;;;;;11.55;6.60;;;11.10;99.90;;;;;;6093376;23;20019;-92
2022/09/28 09:29:16;;;;;;;12.90;5.68;;;11.30;99.90;;;;;;6043463;23;20105;-90
2022/09/28 09:31:51;;;;;;;10.70;5.93;;;11.40;99.90;;;;;;6055629;23;20554;-90
2022/09/28 09:34:35;;;;;;;12.15;5.95;;;11.60;99.90;;;;;;6066660;23;20392;-91
2022/09/28 09:37:17;;;;;;;10.32;5.70;;;12.20;99.90;;;;;;6068722;23;20348;-91
2022/09/28 09:39:57;;;;;;;10.77;5.40;;;11.70;99.90;;;;;;6026795;23;20017;-92
2022/09/28 09:42:38;;;;;;;9.82;5.55;;;11.70;99.90;;;;;;6066020;23;20086;-91
2022/09/28 09:45:12;;;;;;;11.20;5.43;;;11.70;99.90;;;;;;6067598;23;20069;-89
2022/09/28 09:47:43;;;;;;;9.50;5.00;;;11.70;99.90;;;;;;6067859;23;20593;-90
2022/09/28 09:50:24;;;;;;;10.00;5.00;;;11.60;99.90;;;;;;6044450;23;20050;-91
2022/09/28 09:53:15;;;;;;;9.75;4.35;;;11.70;99.90;;;;;;6053158;23;20094;-91
2022/09/28 09:55:44;;;;;;;9.30;4.85;;;11.60;99.90;;;;;;6018721;23;20393;-91
2022/09/28 09:58:20;;;;;;;10.27;5.03;;;13.00;99.90;;;;;;6038078;23;20015;-91
2022/09/28 10:00:50;;;;;;;9.38;4.90;;;11.70;99.90;;;;;;6037950;23;20042;-91
2022/09/28 10:03:28;;;;;;;9.48;4.68;;;11.80;99.90;;;;;;6037278;23;20089;-90
2022/09/28 10:06:05;;;;;;;9.00;4.55;;;12.00;99.90;;;;;;6037599;23;20487;-89
2022/09/28 10:08:47;;;;;;;10.32;4.63;;;12.20;99.90;;;;;;6041851;23;20373;-89
2022/09/28 10:11:18;;;;;;;9.80;4.53;;;12.30;99.90;;;;;;6044013;23;20065;-89
2022/09/28 10:13:47;;;;;;;9.60;4.20;;;12.20;99.90;;;;;;6063438;23;20102;-89
2022/09/28 10:16:18;;;;;;;9.45;4.35;;;12.30;99.90;;;;;;6039029;23;20018;-89
2022/09/28 10:18:44;;;;;;;10.10;4.40;;;12.40;99.90;;;;;;6040071;23;20014;-89
2022/09/28 10:21:15;;;;;;;9.27;3.88;;;12.50;99.90;;;;;;6039159;23;20054;-89
2022/09/28 10:23:42;;;;;;;7.82;3.80;;;12.60;99.90;;;;;;6063848;23;20078;-89
2022/09/28 10:26:23;;;;;;;7.85;3.33;;;12.80;99.90;;;;;;6039195;23;20352;-90
2022/09/28 10:29:04;;;;;;;8.45;3.42;;;12.90;99.90;;;;;;6063272;23;20054;-89
2022/09/28 10:31:35;;;;;;;8.70;3.50;;;13.00;99.90;;;;;;6065580;23;20015;-89
2022/09/28 10:34:03;;;;;;;8.02;2.90;;;13.10;99.90;;;;;;6067767;23;20171;-89
2022/09/28 10:36:41;;;;;;;8.30;3.22;;;13.20;99.90;;;;;;6043600;23;20451;-89
2022/09/28 10:39:35;;;;;;;7.90;2.70;;;13.20;99.90;;;;;;6068261;23;20396;-89
2022/09/28 10:42:10;;;;;;;6.88;2.50;;;13.30;99.90;;;;;;6030448;23;20011;-90
2022/09/28 10:44:53;;;;;;;5.80;2.10;;;13.40;99.90;;;;;;6041952;23;20065;-90
2022/09/28 10:47:22;;;;;;;9.23;2.58;;;13.40;99.90;;;;;;6065503;23;20022;-91
2022/09/28 10:49:50;;;;;;;8.95;2.30;;;13.50;99.90;;;;;;6064655;23;20053;-90
2022/09/28 10:52:40;;;;;;;7.03;2.45;;;13.60;99.90;;;;;;6041388;23;20273;-89
2022/09/28 10:55:30;;;;;;;6.93;2.00;;;13.70;99.90;;;;;;6066633;23;20010;-89
2022/09/28 10:58:00;;;;;;;5.93;1.92;;;13.80;99.90;;;;;;6040740;23;20077;-90
2022/09/28 11:00:36;;;;;;;4.20;1.63;;;13.80;99.90;;;;;;6040829;23;20025;-90
2022/09/28 11:03:02;;;;;;;4.78;1.60;;;14.00;99.90;;;;;;6065826;23;20018;-90
2022/09/28 11:05:28;;;;;;;2.95;1.50;;;14.00;99.90;;;;;;6065802;23;20018;-90
2022/09/28 11:07:56;;;;;;;4.35;1.60;;;14.10;99.90;;;;;;6064491;23;20352;-90
2022/09/28 11:10:27;;;;;;;3.30;1.40;;;14.20;99.90;;;;;;6041619;23;20022;-89
2022/09/28 11:12:54;;;;;;;3.13;1.23;;;14.40;99.90;;;;;;6064666;23;20325;-93
2022/09/28 11:15:28;;;;;;;2.22;1.20;;;14.20;99.90;;;;;;6045491;23;20476;-93
2022/09/28 11:18:37;;;;;;;2.60;1.10;;;14.30;99.90;;;;;;6044964;23;20021;-93
2022/09/28 11:21:14;;;;;;;3.28;1.30;;;14.50;99.90;;;;;;6031001;23;20021;-93
2022/09/28 11:23:43;;;;;;;3.35;1.40;;;14.60;99.90;;;;;;6042015;23;20026;-86
2022/09/28 11:26:11;;;;;;;1.63;1.00;;;14.80;99.90;;;;;;6042467;23;20018;-89
2022/09/28 11:28:40;;;;;;;4.18;1.52;;;14.90;99.90;;;;;;6066285;23;20537;-90
2022/09/28 11:31:06;;;;;;;5.30;1.40;;;14.90;99.90;;;;;;6043219;23;20025;-90
2022/09/28 11:33:36;;;;;;;2.78;1.27;;;14.00;99.90;;;;;;6041038;23;20097;-92
2022/09/28 11:36:12;;;;;;;5.13;1.60;;;14.70;99.90;;;;;;6043250;23;20416;-92
2022/09/28 11:39:10;;;;;;;5.00;1.35;;;14.50;99.90;;;;;;6044007;23;20010;-92
2022/09/28 11:41:53;;;;;;;3.85;1.38;;;14.30;99.90;;;;;;6065522;23;20717;-93
2022/09/28 11:48:24;;;;;;;3.63;1.25;;;14.50;99.90;;;;;;5980676;23;20026;-92
2022/09/28 11:51:13;;;;;;;3.65;1.30;;;;;;;;;;6067929;23;20054;-92
2022/09/28 11:54:14;;;;;;;4.45;1.30;;;13.90;99.90;;;;;;6062036;23;20019;-92
2022/09/28 11:56:50;;;;;;;5.10;1.27;;;13.90;99.90;;;;;;6064445;23;20021;-90
2022/09/28 11:59:57;;;;;;;3.50;1.25;;;13.70;99.90;;;;;;6066393;23;20010;-89
2022/09/28 12:02:39;;;;;;;4.20;1.38;;;13.70;99.90;;;;;;5922963;24;20024;-90
2022/09/28 12:05:15;;;;;;;5.38;1.50;;;13.70;99.90;;;;;;5923069;24;20482;-89
2022/09/28 12:07:58;;;;;;;5.32;1.75;;;13.60;99.90;;;;;;6001539;23;20022;-90
2022/09/28 12:10:41;;;;;;;;;;;13.70;99.90;;;;;;6067271;23;20455;-89
2022/09/28 12:13:29;;;;;;;2.77;1.40;;;13.70;99.90;;;;;;6041599;23;20403;-89
2022/09/28 12:16:19;;;;;;;3.15;1.40;;;14.00;99.90;;;;;;6041543;23;20343;-89
2022/09/28 12:19:12;;;;;;;6.70;1.33;;;14.40;99.90;;;;;;6066019;23;20015;-89
2022/09/28 12:21:45;;;;;;;4.47;1.48;;;14.70;99.90;;;;;;6068314;23;20054;-90
2022/09/28 12:24:17;;;;;;;1.73;1.08;;;14.80;99.90;;;;;;6068533;23;20014;-90
2022/09/28 12:27:02;;;;;;;3.30;1.20;;;14.90;99.90;;;;;;6029501;23;20046;-90
2022/09/28 12:29:50;;;;;;;2.03;1.08;;;14.80;99.90;;;;;;6066382;23;20051;-90
2022/09/28 12:32:37;;;;;;;3.80;1.30;;;14.80;99.90;;;;;;6012740;23;20057;-90
2022/09/28 12:35:11;;;;;;;2.53;1.08;;;14.80;99.90;;;;;;6044389;23;20227;-89
2022/09/28 12:37:47;;;;;;;4.82;1.30;;;14.80;99.90;;;;;;6068810;23;20014;-89
2022/09/28 12:40:43;;;;;;;2.75;0.98;;;14.90;99.90;;;;;;6068936;23;20026;-89
2022/09/28 12:43:43;;;;;;;3.50;1.10;;;14.90;99.90;;;;;;6068173;23;20056;-89
2022/09/28 12:46:20;;;;;;;5.50;1.23;;;14.90;99.90;;;;;;6067544;23;20014;-89
2022/09/28 12:49:13;;;;;;;2.28;1.00;;;14.70;99.90;;;;;;6050777;23;20022;-90
2022/09/28 12:51:40;;;;;;;;;;;14.60;99.90;;;;;;6069565;23;20075;-90
2022/09/28 12:54:18;;;;;;;3.95;1.23;;;14.30;99.90;;;;;;6067645;23;19949;-91
2022/09/28 12:56:55;;;;;;;3.47;1.20;;;14.20;99.90;;;;;;6069326;23;20333;-90
2022/09/28 12:59:25;;;;;;;5.53;1.60;;;14.10;99.90;;;;;;6067686;23;20011;-90
2022/09/28 13:02:03;;;;;;;4.30;1.40;;;13.80;99.90;;;;;;6046370;23;20018;-90
2022/09/28 13:04:29;;;;;;;4.93;1.50;;;13.60;99.90;;;;;;6073021;23;20062;-92
2022/09/28 13:07:07;;;;;;;3.22;1.33;;;13.50;99.90;;;;;;6075230;23;20026;-93
2022/09/28 13:10:04;;;;;;;5.45;1.40;;;13.50;99.90;;;;;;6068086;23;20441;-91
2022/09/28 13:12:39;;;;;;;4.63;1.20;;;13.40;99.90;;;;;;6006332;23;20467;-90
2022/09/28 13:15:26;;;;;;;2.28;1.15;;;13.40;99.90;;;;;;6068320;23;20333;-88
2022/09/28 13:18:01;;;;;;;2.05;1.00;;;13.40;99.90;;;;;;6071676;23;20014;-92
2022/09/28 13:20:42;;;;;;;3.35;1.23;;;13.40;99.90;;;;;;6076682;23;20444;-91
2022/09/28 13:23:21;;;;;;;2.03;1.00;;;13.40;99.90;;;;;;6074058;23;20279;-93
2022/09/28 13:25:54;;;;;;;2.22;1.10;;;13.40;99.90;;;;;;6057798;23;20023;-92
2022/09/28 13:28:24;;;;;;;;;;;13.40;99.90;;;;;;6065083;23;20023;-92
2022/09/28 13:30:55;;;;;;;3.25;1.20;;;13.40;99.90;;;;;;6071896;23;19913;-91
2022/09/28 13:33:38;;;;;;;3.38;1.17;;;13.30;99.90;;;;;;6046150;23;20412;-89
2022/09/28 13:36:24;;;;;;;2.38;1.20;;;13.30;99.90;;;;;;6070441;23;20045;-90